Time;durP1;ratioP1;P1;durP2;ratioP2;P2;SDS_P1;SDS_P2;PMS_P1;PMS_P2;Temp;Humidity;BMP_temperature;BMP_pressure;BME280_temperature;BME280_humidity;BME280_pressure;Samples;Min_cycle;Max_cycle;Signal;HPM_P1;HPM_P2
2023/03/25 00:00:17;;;;;;;11.57;3.25;;;;;;;11.10;64.48;100524.22;5033370;28;20021;-64
2023/03/25 00:02:44;;;;;;;10.87;2.90;;;;;;;11.02;64.25;100537.41;5035048;28;20489;-66
2023/03/25 00:05:11;;;;;;;9.63;2.60;;;;;;;10.98;64.16;100533.03;5028768;28;20030;-65
2023/03/25 00:07:37;;;;;;;7.88;2.50;;;;;;;10.96;64.02;100535.66;5038212;28;20116;-64
2023/03/25 00:10:03;;;;;;;23.63;8.55;;;;;;;10.94;64.35;100541.78;5033977;28;20105;-64
2023/03/25 00:12:29;;;;;;;29.20;10.50;;;;;;;10.91;64.43;100543.53;5038424;28;20038;-64
2023/03/25 00:14:57;;;;;;;9.73;3.00;;;;;;;10.91;64.26;100548.81;5034969;28;20041;-64
2023/03/25 00:17:30;;;;;;;12.57;3.35;;;;;;;10.94;64.28;100545.31;5040019;28;20491;-64
2023/03/25 00:20:04;;;;;;;9.20;2.88;;;;;;;10.92;63.98;100539.16;5036860;28;20083;-63
2023/03/25 00:22:30;;;;;;;16.65;6.03;;;;;;;10.90;64.18;100547.06;5035566;28;20034;-64
2023/03/25 00:24:55;;;;;;;12.07;2.80;;;;;;;10.91;63.88;100548.81;5038376;28;20055;-64
2023/03/25 00:27:21;;;;;;;10.17;3.40;;;;;;;10.91;64.10;100554.09;5039492;28;20028;-64
2023/03/25 00:29:46;;;;;;;9.10;3.00;;;;;;;10.92;64.07;100549.72;5041907;28;20066;-64
2023/03/25 00:32:14;;;;;;;8.37;2.40;;;;;;;10.88;63.76;100548.81;5040782;28;20740;-64
2023/03/25 00:34:46;;;;;;;9.18;2.10;;;;;;;10.86;63.84;100550.56;5039274;28;20040;-64
2023/03/25 00:37:16;;;;;;;8.37;2.27;;;;;;;10.84;63.81;100552.34;5039982;28;20393;-64
2023/03/25 00:39:45;;;;;;;12.43;3.25;;;;;;;10.81;63.75;100554.97;5039197;28;20060;-63
2023/03/25 00:42:12;;;;;;;17.95;5.15;;;;;;;10.81;64.05;100540.91;5038407;28;20535;-64
2023/03/25 00:44:38;;;;;;;9.32;2.72;;;;;;;10.84;63.93;100567.25;5041286;28;20474;-64
2023/03/25 00:47:04;;;;;;;17.20;5.30;;;;;;;10.87;64.06;100568.13;5037204;28;20147;-64
2023/03/25 00:49:29;;;;;;;9.67;2.70;;;;;;;10.91;64.13;100561.13;5039169;28;20321;-64
2023/03/25 00:51:55;;;;;;;10.27;3.00;;;;;;;10.95;63.56;100581.31;5039917;28;20022;-63
2023/03/25 00:54:21;;;;;;;11.30;2.50;;;;;;;10.98;63.84;100564.63;5040002;28;20026;-64
2023/03/25 00:56:47;;;;;;;10.13;2.40;;;;;;;10.96;63.67;100561.09;5038422;28;20021;-64
2023/03/25 00:59:13;;;;;;;8.03;2.43;;;;;;;10.94;64.18;100562.84;5039167;28;20473;-63
2023/03/25 01:01:39;;;;;;;10.35;2.15;;;;;;;10.86;63.95;100570.78;5041731;28;20040;-63
2023/03/25 01:04:10;;;;;;;11.43;2.03;;;;;;;10.83;64.11;100576.94;5038414;28;20045;-65
2023/03/25 01:06:40;;;;;;;10.55;2.53;;;;;;;10.81;64.11;100573.41;5041448;28;20028;-64
2023/03/25 01:09:07;;;;;;;10.60;1.88;;;;;;;10.80;64.07;100566.41;5052765;28;20047;-64
2023/03/25 01:11:36;;;;;;;8.32;1.90;;;;;;;10.74;64.56;100577.81;5057828;28;20060;-64
2023/03/25 01:14:04;;;;;;;10.23;2.03;;;;;;;10.70;64.80;100575.16;5058521;28;20060;-64
2023/03/25 01:16:30;;;;;;;8.20;1.97;;;;;;;10.66;64.54;100570.78;5058060;28;20107;-64
2023/03/25 01:18:56;;;;;;;13.50;2.28;;;;;;;10.69;64.27;100573.41;5058154;28;20021;-64
2023/03/25 01:21:21;;;;;;;7.30;1.90;;;;;;;10.67;64.81;100562.88;5052171;28;20037;-64
2023/03/25 01:23:47;;;;;;;7.47;1.90;;;;;;;10.61;64.77;100549.72;5037016;28;20489;-64
2023/03/25 01:26:12;;;;;;;10.07;2.10;;;;;;;10.53;65.07;100541.81;5040863;28;20036;-64
2023/03/25 01:28:39;;;;;;;5.60;1.30;;;;;;;10.50;64.78;100549.72;5050626;28;20425;-64
2023/03/25 01:31:07;;;;;;;8.43;1.40;;;;;;;10.49;64.78;100540.06;5041898;28;20084;-64
2023/03/25 01:33:33;;;;;;;9.75;2.30;;;;;;;10.50;64.64;100536.56;5038374;28;20031;-64
2023/03/25 01:35:59;;;;;;;7.27;1.73;;;;;;;10.51;65.20;100538.31;5037973;28;20474;-64
2023/03/25 01:38:25;;;;;;;11.10;1.75;;;;;;;10.53;64.84;100536.56;5038048;28;20052;-64
2023/03/25 01:40:52;;;;;;;8.90;1.70;;;;;;;10.57;65.09;100542.66;5037734;28;20108;-64
2023/03/25 01:43:17;;;;;;;9.85;1.60;;;;;;;10.59;64.82;100535.66;5038027;28;20094;-64
2023/03/25 01:45:46;;;;;;;8.87;1.60;;;;;;;10.59;65.04;100531.28;5037948;28;20037;-64
2023/03/25 01:48:31;;;;;;;7.05;1.65;;;;;;;10.63;64.80;100526.91;5038013;28;20033;-64
2023/03/25 01:51:02;;;;;;;8.02;1.40;;;;;;;10.68;64.63;100524.25;5037838;28;20029;-64
2023/03/25 01:53:30;;;;;;;6.80;1.70;;;;;;;10.71;64.48;100524.22;5037636;28;20029;-64
2023/03/25 01:55:56;;;;;;;9.50;1.90;;;;;;;10.75;64.55;100523.38;5037688;28;20033;-64
2023/03/25 01:58:25;;;;;;;5.88;1.50;;;;;;;10.79;64.50;100524.25;5037592;28;20040;-64
2023/03/25 02:00:53;;;;;;;9.82;1.77;;;;;;;10.80;64.48;100518.97;5037710;28;20083;-64
2023/03/25 02:03:22;;;;;;;6.90;1.33;;;;;;;10.79;64.32;100517.22;5037689;28;20029;-64
2023/03/25 02:06:02;;;;;;;8.83;1.70;;;;;;;10.77;64.91;100521.63;5037339;28;20033;-64
2023/03/25 02:08:32;;;;;;;12.10;1.58;;;;;;;10.74;64.57;100524.25;5037289;28;20031;-64
2023/03/25 02:10:57;;;;;;;5.82;1.48;;;;;;;10.73;64.84;100527.75;5037223;28;20111;-64
2023/03/25 02:13:24;;;;;;;6.95;1.40;;;;;;;10.70;64.56;100523.38;5037620;28;20049;-64
2023/03/25 02:16:04;;;;;;;7.87;1.50;;;;;;;10.68;64.68;100524.25;5037589;28;20026;-64
2023/03/25 02:18:51;;;;;;;7.63;1.90;;;;;;;10.67;64.38;100525.13;5037514;28;20104;-64
2023/03/25 02:21:22;;;;;;;8.00;1.83;;;;;;;10.68;64.53;100521.59;5037480;28;20596;-64
2023/03/25 02:26:54;;;;;;;7.53;1.47;;;;;;;10.62;64.49;100519.88;5041909;28;20040;-64
2023/03/25 02:29:35;;;;;;;8.52;1.58;;;;;;;10.58;64.34;100519.00;5053401;28;20056;-64
2023/03/25 02:32:25;;;;;;;7.32;1.50;;;;;;;10.51;64.55;100526.88;5036120;28;20046;-64
2023/03/25 02:35:03;;;;;;;9.60;1.35;;;;;;;10.47;64.32;100512.81;5037274;28;20389;-64
2023/03/25 02:37:49;;;;;;;7.90;1.50;;;;;;;10.44;64.71;100510.19;5037150;28;20048;-64
2023/03/25 02:40:21;;;;;;;8.47;1.40;;;;;;;10.48;64.70;100511.94;5037278;28;20030;-64
2023/03/25 02:42:56;;;;;;;7.10;1.60;;;;;;;10.45;64.42;100511.94;5036124;28;20025;-64
2023/03/25 02:45:29;;;;;;;11.63;1.88;;;;;;;10.42;64.93;100507.56;5037051;28;20089;-64
2023/03/25 02:48:01;;;;;;;9.52;1.77;;;;;;;10.40;64.88;100506.69;5037174;28;20025;-64
2023/03/25 02:50:32;;;;;;;8.82;1.75;;;;;;;10.36;64.95;100501.41;5036963;28;20116;-64
2023/03/25 02:53:01;;;;;;;6.23;1.70;;;;;;;10.33;65.09;100495.25;5037052;28;20136;-64
2023/03/25 02:55:32;;;;;;;10.80;1.88;;;;;;;10.32;65.06;100488.22;5036777;28;20048;-64
2023/03/25 02:58:00;;;;;;;7.88;1.58;;;;;;;10.33;65.05;100494.34;5036889;28;20371;-64
2023/03/25 03:00:27;;;;;;;7.63;1.40;;;;;;;10.39;64.96;100490.84;5036836;28;20033;-64
2023/03/25 03:03:00;;;;;;;8.68;1.70;;;;;;;10.43;64.83;100495.28;5036860;28;20025;-64
2023/03/25 03:05:30;;;;;;;8.93;2.00;;;;;;;10.42;64.87;100490.88;5036662;28;20027;-64
2023/03/25 03:08:25;;;;;;;9.07;1.70;;;;;;;10.36;65.21;100488.22;5037101;28;20029;-64
2023/03/25 03:11:05;;;;;;;8.93;1.33;;;;;;;10.30;65.16;100487.34;5036467;28;20387;-64
2023/03/25 03:14:01;;;;;;;9.32;1.98;;;;;;;10.28;65.28;100491.75;5036573;28;20033;-64
2023/03/25 03:16:33;;;;;;;8.02;1.60;;;;;;;10.28;65.27;100498.75;5036726;28;20436;-64
2023/03/25 03:19:23;;;;;;;7.53;1.50;;;;;;;10.33;65.19;100497.88;5036713;28;20036;-64
2023/03/25 03:22:00;;;;;;;9.23;1.60;;;;;;;10.39;64.70;100501.38;5040975;28;20029;-64
2023/03/25 03:24:37;;;;;;;8.45;1.63;;;;;;;10.42;64.93;100504.06;5088247;28;20408;-64
2023/03/25 03:27:15;;;;;;;8.10;1.63;;;;;;;10.44;64.97;100507.56;5039631;28;20025;-64
2023/03/25 03:29:46;;;;;;;9.38;1.65;;;;;;;10.46;64.56;100508.44;5035016;28;20037;-64
2023/03/25 03:32:27;;;;;;;7.23;1.70;;;;;;;10.50;64.82;100514.59;5035333;28;20029;-64
2023/03/25 03:34:58;;;;;;;5.45;1.50;;;;;;;10.51;64.38;100517.25;5036376;28;20460;-64
2023/03/25 03:37:33;;;;;;;7.88;1.75;;;;;;;10.52;64.55;100511.09;5036509;28;20060;-64
2023/03/25 03:40:00;;;;;;;7.30;1.50;;;;;;;10.52;64.26;100511.09;5039706;28;20022;-64
2023/03/25 03:42:35;;;;;;;8.90;1.63;;;;;;;10.54;64.24;100511.97;5040143;28;20443;-64
2023/03/25 03:45:28;;;;;;;6.50;1.60;;;;;;;10.52;64.70;100526.91;5040712;28;20032;-64
2023/03/25 03:47:56;;;;;;;8.68;1.50;;;;;;;10.52;64.15;100537.44;5040436;28;20111;-64
2023/03/25 03:50:31;;;;;;;6.65;1.25;;;;;;;10.55;64.31;100547.97;5040434;28;20025;-64
2023/03/25 03:53:04;;;;;;;11.50;2.10;;;;;;;10.54;64.18;100532.16;5040331;28;20029;-64
2023/03/25 03:56:00;;;;;;;5.05;1.77;;;;;;;10.53;64.43;100520.75;5038674;28;20025;-64
2023/03/25 03:58:33;;;;;;;11.07;1.87;;;;;;;10.49;64.60;100519.00;5040048;28;20044;-64
2023/03/25 04:01:08;;;;;;;6.20;1.40;;;;;;;10.46;64.56;100521.59;5048153;28;20021;-64
2023/03/25 04:03:45;;;;;;;8.48;1.70;;;;;;;10.48;64.16;100527.75;5040013;28;20044;-64
2023/03/25 04:06:46;;;;;;;6.50;1.60;;;;;;;10.49;64.76;100516.38;5040077;28;20105;-64
2023/03/25 04:09:56;;;;;;;7.13;1.35;;;;;;;10.49;64.60;100511.09;5029832;28;20037;-64
2023/03/25 04:12:26;;;;;;;8.10;1.70;;;;;;;10.48;64.65;100507.56;5031720;28;20053;-64
2023/03/25 04:14:54;;;;;;;6.95;1.40;;;;;;;10.48;64.17;100514.56;5039800;28;20022;-64
2023/03/25 04:17:20;;;;;;;6.63;1.50;;;;;;;10.46;64.29;100509.34;5041448;28;20090;-64
2023/03/25 04:19:47;;;;;;;9.82;1.35;;;;;;;10.41;64.65;100513.72;5054147;28;20032;-64
2023/03/25 04:22:16;;;;;;;7.43;1.30;;;;;;;10.38;64.34;100525.97;5054169;28;20112;-64
2023/03/25 04:24:42;;;;;;;6.30;1.40;;;;;;;10.34;64.48;100515.44;5039469;28;20025;-64
2023/03/25 04:27:12;;;;;;;8.23;1.40;;;;;;;10.31;64.41;100515.44;5038015;28;20509;-64
2023/03/25 04:29:39;;;;;;;9.10;1.48;;;;;;;10.28;64.67;100515.44;5039644;28;20040;-64
2023/03/25 04:32:04;;;;;;;10.90;1.50;;;;;;;10.23;64.68;100519.78;5038352;28;20021;-64
2023/03/25 04:34:30;;;;;;;5.53;1.40;;;;;;;10.20;64.44;100519.78;5039397;28;20056;-64
2023/03/25 04:36:55;;;;;;;7.73;1.30;;;;;;;10.19;64.84;100521.56;5039487;28;20017;-64
2023/03/25 04:39:24;;;;;;;7.10;1.27;;;;;;;10.18;64.47;100519.81;5039373;28;20030;-64
2023/03/25 04:41:52;;;;;;;8.90;1.37;;;;;;;10.19;64.37;100526.81;5039438;28;20272;-64
2023/03/25 04:44:20;;;;;;;10.70;1.70;;;;;;;10.17;64.77;100519.78;5039278;28;20045;-64
2023/03/25 04:46:47;;;;;;;11.60;1.50;;;;;;;10.17;64.33;100530.31;5037887;28;20052;-64
2023/03/25 04:49:20;;;;;;;6.60;1.35;;;;;;;10.17;64.75;100527.69;5039180;28;20116;-64
2023/03/25 04:51:50;;;;;;;8.30;1.52;;;;;;;10.15;64.81;100529.44;5038655;28;20059;-64
2023/03/25 04:54:20;;;;;;;8.53;1.20;;;;;;;10.12;64.45;100537.31;5039044;28;20022;-64
2023/03/25 04:56:49;;;;;;;10.88;2.30;;;;;;;10.12;64.46;100529.44;5038744;28;20496;-64
2023/03/25 04:59:17;;;;;;;9.48;1.60;;;;;;;10.12;64.41;100526.81;5025980;28;20030;-64
2023/03/25 05:01:44;;;;;;;6.00;1.30;;;;;;;10.12;64.36;100535.56;5039288;28;20038;-64
2023/03/25 05:04:12;;;;;;;8.18;1.40;;;;;;;10.14;64.53;100541.72;5034104;28;20029;-64
2023/03/25 05:06:40;;;;;;;8.40;1.53;;;;;;;10.16;64.53;100536.44;5038727;28;20118;-64
2023/03/25 05:09:09;;;;;;;5.30;0.98;;;;;;;10.18;64.29;100529.44;5039020;28;20032;-64
2023/03/25 05:11:36;;;;;;;5.95;1.30;;;;;;;10.17;64.22;100532.94;5038482;28;20113;-64
2023/03/25 05:14:02;;;;;;;7.03;1.63;;;;;;;10.15;64.16;100532.06;5047896;28;20033;-64
2023/03/25 05:16:28;;;;;;;6.47;1.23;;;;;;;10.13;64.35;100526.81;5058703;28;20025;-64
2023/03/25 05:18:54;;;;;;;9.15;1.50;;;;;;;10.13;64.25;100533.81;5058842;28;20036;-64
2023/03/25 05:21:20;;;;;;;7.05;1.40;;;;;;;10.11;64.52;100528.53;5058691;28;20033;-64
2023/03/25 05:26:33;;;;;;;7.43;1.50;;;;;;;10.08;64.27;100532.94;5058303;28;20037;-64
2023/03/25 05:29:18;;;;;;;6.85;1.23;;;;;;;10.07;64.64;100541.72;5076002;28;20044;-64
2023/03/25 05:31:45;;;;;;;6.78;1.63;;;;;;;10.05;64.64;100550.47;5057859;28;20440;-64
2023/03/25 05:34:13;;;;;;;8.43;1.73;;;;;;;10.05;64.39;100554.84;5056264;28;20060;-64
2023/03/25 05:36:39;;;;;;;7.10;1.60;;;;;;;10.04;64.64;100551.34;5055934;28;20064;-64
2023/03/25 05:39:04;;;;;;;7.57;1.50;;;;;;;10.00;64.73;100553.97;5056200;28;20036;-64
2023/03/25 05:41:37;;;;;;;5.77;1.40;;;;;;;9.96;64.70;100555.69;5055883;28;20052;-64
2023/03/25 05:44:04;;;;;;;8.90;1.50;;;;;;;9.95;64.85;100563.59;5056097;28;20067;-64
2023/03/25 05:46:29;;;;;;;7.25;1.50;;;;;;;9.91;64.65;100570.59;5055937;28;20035;-64
2023/03/25 05:48:59;;;;;;;6.00;1.60;;;;;;;9.89;64.82;100564.44;5039369;28;20111;-64
2023/03/25 05:51:25;;;;;;;9.48;1.70;;;;;;;9.84;65.02;100566.19;5055782;28;20505;-64
2023/03/25 05:53:52;;;;;;;6.22;1.50;;;;;;;9.74;65.24;100574.03;5055893;28;20040;-64
2023/03/25 05:56:20;;;;;;;7.32;1.83;;;;;;;9.71;64.82;100575.78;5055606;28;20036;-64
2023/03/25 05:58:50;;;;;;;7.20;1.87;;;;;;;9.69;65.22;100573.13;5036519;28;20834;-64
2023/03/25 06:01:17;;;;;;;7.53;1.70;;;;;;;9.70;65.00;100576.66;5036467;28;20025;-64
2023/03/25 06:03:44;;;;;;;9.90;1.88;;;;;;;9.71;65.41;100581.91;5037111;28;20049;-64
2023/03/25 06:06:13;;;;;;;6.53;1.60;;;;;;;9.68;65.29;100576.63;5037590;28;20065;-64
2023/03/25 06:08:43;;;;;;;8.60;2.00;;;;;;;9.68;65.45;100575.78;5037705;28;20056;-64
2023/03/25 06:11:12;;;;;;;6.80;1.53;;;;;;;9.67;65.22;100576.66;5055070;28;20055;-64
2023/03/25 06:13:39;;;;;;;10.70;1.92;;;;;;;9.66;65.38;100591.53;5057785;28;20024;-64
2023/03/25 06:16:08;;;;;;;7.90;1.73;;;;;;;9.62;65.53;100595.88;5057671;28;20029;-64
2023/03/25 06:18:37;;;;;;;7.88;1.55;;;;;;;9.62;65.21;100589.75;5057723;28;20090;-64
2023/03/25 06:21:03;;;;;;;8.70;1.60;;;;;;;9.65;65.12;100588.91;5057682;28;20025;-64
2023/03/25 06:23:28;;;;;;;8.57;1.60;;;;;;;9.72;65.13;100602.06;5041628;28;20033;-64
2023/03/25 06:25:54;;;;;;;6.32;1.50;;;;;;;9.87;64.90;100600.41;5037255;28;20037;-64
2023/03/25 06:28:22;;;;;;;7.33;1.77;;;;;;;9.94;64.78;100606.56;5037480;28;20036;-64
2023/03/25 06:30:48;;;;;;;7.60;2.55;;;;;;;9.99;64.32;100605.69;5037239;28;20052;-64
2023/03/25 06:33:14;;;;;;;11.05;2.03;;;;;;;10.00;64.53;100593.44;5037594;28;20037;-64
2023/03/25 06:35:41;;;;;;;7.75;1.73;;;;;;;9.90;64.25;100598.66;5037214;28;20018;-64
2023/03/25 06:38:10;;;;;;;6.68;1.80;;;;;;;9.83;64.39;100604.75;5037408;28;20091;-64
2023/03/25 06:40:39;;;;;;;9.20;1.80;;;;;;;9.81;64.76;100606.50;5037001;28;20068;-64
2023/03/25 06:43:05;;;;;;;8.32;1.75;;;;;;;9.79;64.36;100605.63;5037303;28;20111;-64
2023/03/25 06:45:31;;;;;;;9.38;1.98;;;;;;;9.80;64.46;100612.63;5037167;28;20025;-64
2023/03/25 06:47:56;;;;;;;5.50;1.60;;;;;;;9.87;63.77;100618.81;5037343;28;20030;-64
2023/03/25 06:50:23;;;;;;;9.88;1.80;;;;;;;9.91;63.84;100620.56;5037102;28;20036;-64
2023/03/25 06:52:48;;;;;;;9.80;1.80;;;;;;;9.92;63.97;100617.06;5037082;28;20037;-64
2023/03/25 06:55:14;;;;;;;8.30;1.95;;;;;;;9.86;63.99;100619.69;5036943;28;20447;-64
2023/03/25 06:57:40;;;;;;;7.27;1.83;;;;;;;9.87;64.10;100610.91;5037113;28;20041;-64
2023/03/25 07:00:07;;;;;;;8.55;1.60;;;;;;;9.90;63.91;100608.28;5037008;28;20108;-64
2023/03/25 07:02:33;;;;;;;7.75;2.00;;;;;;;9.95;63.49;100611.81;5036861;28;20075;-64
2023/03/25 07:04:58;;;;;;;6.10;1.80;;;;;;;9.99;63.66;100604.81;5031350;28;20029;-64
2023/03/25 07:07:25;;;;;;;6.25;1.90;;;;;;;10.07;63.90;100605.72;5037002;28;20033;-64
2023/03/25 07:09:53;;;;;;;7.97;1.53;;;;;;;10.20;63.27;100607.53;5036744;28;20056;-64
2023/03/25 07:12:19;;;;;;;6.95;1.80;;;;;;;10.34;63.17;100611.94;5036053;28;20025;-64
2023/03/25 07:14:51;;;;;;;7.82;1.45;;;;;;;10.41;62.34;100615.50;5036593;28;20026;-64
2023/03/25 07:17:16;;;;;;;8.02;1.75;;;;;;;10.44;62.46;100618.13;5034617;28;20021;-64
2023/03/25 07:19:42;;;;;;;9.97;1.70;;;;;;;10.48;62.44;100618.16;5037453;28;20033;-64
2023/03/25 07:22:08;;;;;;;8.37;1.47;;;;;;;10.55;62.11;100616.41;5038006;28;20112;-64
2023/03/25 07:24:33;;;;;;;7.85;1.50;;;;;;;10.60;62.01;100621.69;5038207;28;20031;-64
2023/03/25 07:26:58;;;;;;;6.23;1.30;;;;;;;10.68;61.85;100622.59;5036229;28;20057;-64
2023/03/25 07:29:24;;;;;;;8.13;1.37;;;;;;;10.77;61.53;100619.09;5036465;28;20034;-64
2023/03/25 07:31:49;;;;;;;9.63;1.20;;;;;;;10.88;61.82;100622.59;5036414;28;20060;-64
2023/03/25 07:34:14;;;;;;;7.10;1.53;;;;;;;10.99;61.59;100616.47;5037733;28;20409;-64
2023/03/25 07:36:40;;;;;;;6.82;1.60;;;;;;;11.08;61.60;100624.34;5036205;28;20060;-64
2023/03/25 07:39:06;;;;;;;5.57;1.50;;;;;;;11.12;61.41;100620.84;5034269;28;20108;-64
2023/03/25 07:41:32;;;;;;;7.13;1.17;;;;;;;11.17;61.42;100621.69;5036272;28;20038;-64
2023/03/25 07:43:57;;;;;;;8.40;1.70;;;;;;;11.15;61.17;100620.81;5035968;28;20052;-64
2023/03/25 07:46:23;;;;;;;9.33;1.70;;;;;;;11.20;61.18;100616.41;5036940;28;20482;-64
2023/03/25 07:48:48;;;;;;;5.47;1.70;;;;;;;11.32;60.80;100612.03;5036069;28;20437;-64
2023/03/25 07:51:14;;;;;;;7.70;1.90;;;;;;;11.54;61.14;100601.44;5056269;28;20033;-64
2023/03/25 07:53:43;;;;;;;7.33;1.50;;;;;;;11.81;60.50;100599.59;5038813;28;20037;-64
2023/03/25 07:56:09;;;;;;;8.15;1.38;;;;;;;12.09;60.15;100607.41;5042880;28;20025;-64
2023/03/25 07:58:35;;;;;;;10.27;1.70;;;;;;;12.35;59.73;100608.16;5038321;28;20056;-64
2023/03/25 08:01:00;;;;;;;9.90;1.73;;;;;;;12.58;59.05;100598.34;5036434;28;20021;-64
2023/03/25 08:03:27;;;;;;;9.98;1.80;;;;;;;12.76;58.69;100599.97;5042852;28;20041;-64
2023/03/25 08:05:53;;;;;;;10.65;1.70;;;;;;;12.98;57.78;100591.88;5036312;28;20030;-64
2023/03/25 08:08:18;;;;;;;7.10;1.90;;;;;;;13.20;57.64;100582.84;5036059;28;20025;-64
2023/03/25 08:10:46;;;;;;;8.23;1.77;;;;;;;13.44;57.04;100578.22;5035953;28;20057;-64
2023/03/25 08:13:12;;;;;;;8.50;1.58;;;;;;;13.65;56.68;100576.22;5036517;28;20037;-64
2023/03/25 08:15:38;;;;;;;10.02;1.27;;;;;;;13.82;56.13;100580.44;5036394;28;20041;-64
2023/03/25 08:18:05;;;;;;;6.35;1.25;;;;;;;14.00;55.81;100581.97;5036295;28;20030;-64
2023/03/25 08:20:32;;;;;;;10.77;1.80;;;;;;;14.26;54.96;100580.75;5036376;28;20037;-64
2023/03/25 08:22:58;;;;;;;7.63;1.00;;;;;;;14.56;54.48;100576.75;5037429;28;20478;-64
2023/03/25 08:25:23;;;;;;;9.63;1.05;;;;;;;15.00;53.47;100568.13;5043204;28;20052;-64
2023/03/25 08:27:49;;;;;;;6.77;0.90;;;;;;;15.41;52.65;100569.13;5034169;28;20438;-64
2023/03/25 08:30:14;;;;;;;6.50;0.80;;;;;;;15.82;51.00;100568.34;5034195;28;20463;-64
2023/03/25 08:32:40;;;;;;;7.50;0.88;;;;;;;16.15;50.67;100565.88;5034356;28;20040;-64
2023/03/25 08:35:06;;;;;;;7.77;0.90;;;;;;;16.38;49.63;100564.50;5039784;28;20543;-64
2023/03/25 08:37:36;;;;;;;8.05;0.70;;;;;;;16.48;49.48;100566.00;5039775;28;20018;-64
2023/03/25 08:40:08;;;;;;;13.73;1.00;;;;;;;16.64;49.69;100564.72;5039368;28;20596;-65
2023/03/25 08:42:35;;;;;;;8.38;0.88;;;;;;;16.77;49.66;100565.31;5038876;28;20033;-64
2023/03/25 08:45:01;;;;;;;6.00;0.77;;;;;;;16.90;49.66;100555.22;5048806;28;20112;-65
2023/03/25 08:47:26;;;;;;;9.80;1.05;;;;;;;17.02;49.45;100561.19;5043912;28;20113;-64
2023/03/25 08:49:51;;;;;;;9.33;0.70;;;;;;;17.05;47.63;100550.47;5030960;28;20514;-65
2023/03/25 08:52:17;;;;;;;10.70;1.40;;;;;;;17.00;47.24;100552.34;5037365;28;20053;-65
2023/03/25 08:54:43;;;;;;;7.07;1.20;;;;;;;16.96;47.54;100548.00;5029621;28;20461;-64
2023/03/25 08:57:08;;;;;;;8.53;0.90;;;;;;;16.97;47.62;100547.06;5038153;28;20026;-64
2023/03/25 08:59:33;;;;;;;9.87;1.00;;;;;;;17.03;47.37;100550.50;5040507;28;20025;-65
2023/03/25 09:01:59;;;;;;;8.97;1.00;;;;;;;17.07;47.06;100546.81;5039109;28;20049;-64
2023/03/25 09:04:24;;;;;;;7.75;0.73;;;;;;;17.15;47.09;100548.44;5037799;28;20025;-64
2023/03/25 09:06:50;;;;;;;9.77;0.93;;;;;;;17.26;47.35;100548.13;5038956;28;20033;-65
2023/03/25 09:09:17;;;;;;;8.40;0.93;;;;;;;17.39;47.01;100552.19;5038825;28;20142;-65
2023/03/25 09:11:43;;;;;;;12.45;1.05;;;;;;;17.49;46.53;100552.81;5038833;28;20029;-64
2023/03/25 09:14:08;;;;;;;8.73;0.90;;;;;;;17.55;45.97;100552.63;5039058;28;20045;-65
2023/03/25 09:16:34;;;;;;;9.07;1.33;;;;;;;17.61;46.00;100551.59;5038767;28;20039;-65
2023/03/25 09:18:59;;;;;;;9.53;0.90;;;;;;;17.65;45.88;100554.13;5039036;28;20099;-64
2023/03/25 09:21:25;;;;;;;8.13;0.80;;;;;;;17.76;45.79;100545.81;5030249;28;20065;-65
2023/03/25 09:23:51;;;;;;;9.97;1.00;;;;;;;17.87;45.59;100552.59;5047830;28;20025;-65
2023/03/25 09:26:16;;;;;;;9.30;1.42;;;;;;;17.94;45.13;100540.84;5048095;28;20087;-65
2023/03/25 09:28:42;;;;;;;11.73;1.23;;;;;;;18.04;44.46;100538.81;5038258;28;20059;-65
2023/03/25 09:31:08;;;;;;;9.90;1.07;;;;;;;18.00;44.56;100535.34;5038449;28;20021;-65
2023/03/25 09:33:34;;;;;;;9.73;0.93;;;;;;;18.05;44.60;100525.44;5038707;28;20264;-66
2023/03/25 09:36:00;;;;;;;11.85;1.10;;;;;;;18.15;44.62;100519.81;5036956;28;20017;-65
2023/03/25 09:38:25;;;;;;;9.27;1.00;;;;;;;18.32;44.23;100521.94;5038338;28;20030;-65
2023/03/25 09:40:50;;;;;;;8.57;0.90;;;;;;;18.46;44.26;100522.38;5037876;28;20029;-65
2023/03/25 09:43:31;;;;;;;10.97;1.27;;;;;;;18.51;43.24;100511.56;5038626;28;20035;-65
2023/03/25 09:45:58;;;;;;;9.35;1.00;;;;;;;18.64;43.82;100506.69;5038178;28;20083;-65
2023/03/25 09:48:37;;;;;;;9.13;1.10;;;;;;;18.68;42.69;100502.09;5037771;28;20065;-65
2023/03/25 09:51:09;;;;;;;8.65;0.90;;;;;;;18.75;43.38;100509.00;5056901;28;20039;-65
2023/03/25 09:53:45;;;;;;;11.77;1.10;;;;;;;18.89;43.40;100496.03;5041293;28;20037;-65
2023/03/25 09:56:16;;;;;;;8.80;1.08;;;;;;;19.00;42.98;100502.81;5047138;28;20036;-65
2023/03/25 09:58:47;;;;;;;9.15;1.00;;;;;;;19.02;41.93;100508.97;5038971;28;20042;-65
2023/03/25 10:01:27;;;;;;;8.25;1.02;;;;;;;19.03;41.64;100505.38;5038148;28;20079;-65
2023/03/25 10:04:17;;;;;;;8.18;1.10;;;;;;;19.07;41.72;100497.22;5034900;28;20104;-65
2023/03/25 10:06:57;;;;;;;10.50;1.20;;;;;;;19.09;42.37;100497.16;5036504;28;20037;-65
2023/03/25 10:09:38;;;;;;;10.43;1.45;;;;;;;19.22;42.51;100497.56;5036271;28;20029;-65
2023/03/25 10:12:30;;;;;;;10.25;1.13;;;;;;;19.39;41.69;100494.28;5037556;28;20021;-65
2023/03/25 10:15:04;;;;;;;10.35;1.00;;;;;;;19.48;41.30;100482.38;5019195;28;20037;-65
2023/03/25 10:17:36;;;;;;;14.27;1.30;;;;;;;19.50;41.29;100485.88;5036554;28;20079;-65
2023/03/25 10:20:25;;;;;;;12.60;1.27;;;;;;;19.60;41.49;100476.59;5036848;28;20025;-65
2023/03/25 10:23:13;;;;;;;5.72;0.82;;;;;;;19.69;41.16;100459.34;5037702;28;20044;-65
2023/03/25 10:25:44;;;;;;;9.10;1.00;;;;;;;19.91;40.90;100461.19;5052024;28;20051;-65
2023/03/25 10:28:17;;;;;;;9.75;1.15;;;;;;;20.02;40.72;100458.94;5037279;28;20044;-65
2023/03/25 10:30:48;;;;;;;7.80;1.17;;;;;;;20.18;40.74;100458.34;5037250;28;20107;-65
2023/03/25 10:33:27;;;;;;;10.20;1.70;;;;;;;20.17;38.87;100454.78;5037399;28;20033;-65
2023/03/25 10:35:55;;;;;;;8.43;1.00;;;;;;;20.20;38.96;100453.78;5037346;28;20026;-65
2023/03/25 10:38:25;;;;;;;8.15;1.30;;;;;;;20.21;39.73;100458.19;5037096;28;20068;-65
2023/03/25 10:41:02;;;;;;;11.25;1.20;;;;;;;20.36;38.97;100446.84;5036837;28;20470;-65
2023/03/25 10:43:36;;;;;;;9.07;1.38;;;;;;;20.54;39.11;100436.31;5037340;28;20044;-65
2023/03/25 10:46:24;;;;;;;6.23;0.90;;;;;;;20.53;38.92;100439.91;5037055;28;20076;-65
2023/03/25 10:48:50;;;;;;;9.45;1.10;;;;;;;20.68;38.94;100446.41;5032921;28;20040;-65
2023/03/25 10:51:19;;;;;;;7.88;0.90;;;;;;;20.76;38.62;100443.41;5046400;28;20393;-65
2023/03/25 10:53:51;;;;;;;7.67;1.07;;;;;;;20.89;38.84;100443.75;5038772;28;20036;-65
2023/03/25 10:56:31;;;;;;;9.52;0.85;;;;;;;20.94;38.31;100445.31;5037177;28;20104;-65
2023/03/25 10:58:59;;;;;;;6.43;1.00;;;;;;;21.12;38.44;100442.75;5033581;28;20034;-65
2023/03/25 11:01:38;;;;;;;9.73;1.33;;;;;;;21.26;38.05;100443.91;5037088;28;20057;-65
2023/03/25 11:04:10;;;;;;;7.80;1.00;;;;;;;21.33;37.86;100456.94;5036723;28;20025;-65
2023/03/25 11:06:38;;;;;;;8.33;1.10;;;;;;;21.52;38.70;100443.56;5036795;28;20363;-65
2023/03/25 11:09:07;;;;;;;10.40;1.10;;;;;;;21.56;37.95;100438.06;5035631;28;20113;-65
2023/03/25 11:11:33;;;;;;;8.32;1.20;;;;;;;21.63;37.80;100431.47;5036454;28;20060;-65
2023/03/25 11:14:21;;;;;;;7.97;0.98;;;;;;;21.64;38.00;100434.09;5035726;28;20087;-65
2023/03/25 11:16:53;;;;;;;8.15;1.20;;;;;;;21.86;37.96;100425.03;5036830;28;20076;-65
2023/03/25 11:19:26;;;;;;;8.83;1.20;;;;;;;22.00;37.61;100418.97;5036937;28;20039;-65
2023/03/25 11:21:55;;;;;;;7.50;1.30;;;;;;;22.03;37.29;100418.81;5036775;28;20037;-65
2023/03/25 11:24:26;;;;;;;8.15;1.20;;;;;;;22.05;37.25;100411.56;5049979;28;20040;-65
2023/03/25 11:26:52;;;;;;;9.00;1.30;;;;;;;22.10;37.32;100408.66;5041263;28;20127;-65
2023/03/25 11:29:23;;;;;;;9.38;1.50;;;;;;;22.21;37.22;100405.44;5036809;28;20034;-66
2023/03/25 11:32:11;;;;;;;9.03;1.17;;;;;;;22.25;36.67;100401.66;5035076;28;20048;-66
2023/03/25 11:34:40;;;;;;;8.63;1.20;;;;;;;22.51;36.79;100394.09;5036557;28;20584;-65
2023/03/25 11:37:16;;;;;;;8.68;1.17;;;;;;;22.68;36.55;100378.94;5036508;28;20029;-65
2023/03/25 11:39:54;;;;;;;8.95;1.10;;;;;;;22.80;36.06;100365.72;5036198;28;20079;-65
2023/03/25 11:42:37;;;;;;;7.88;1.30;;;;;;;22.74;35.59;100359.81;5036422;28;20034;-65